createdAt,value
2019-03-15T00:04:53.872Z,40.7
2019-03-15T00:14:53.084Z,40.6
2019-03-15T00:24:52.297Z,40.4
2019-03-15T00:34:51.506Z,40.3
2019-03-15T00:44:50.724Z,40.3
2019-03-15T00:54:49.930Z,40.3
2019-03-15T01:04:49.140Z,40.4
2019-03-15T01:14:48.352Z,40.4
2019-03-15T01:24:47.564Z,40.5
2019-03-15T01:34:46.776Z,38.2
2019-03-15T01:44:45.986Z,28.3
2019-03-15T01:54:45.210Z,25.7
2019-03-15T02:04:44.408Z,36.1
2019-03-15T02:14:43.659Z,38.8
2019-03-15T02:24:42.974Z,42.1
2019-03-15T02:34:42.040Z,41.3
2019-03-15T02:44:41.251Z,43.8
2019-03-15T02:54:40.459Z,42.4
2019-03-15T03:04:40.873Z,41.6
2019-03-15T03:14:38.879Z,41.3
2019-03-15T03:24:38.089Z,41.2
2019-03-15T03:34:37.317Z,41.1
2019-03-15T03:44:36.508Z,41.2
2019-03-15T03:54:36.794Z,41.3
2019-03-15T04:04:36.004Z,41.3
2019-03-15T04:14:35.224Z,41.3
2019-03-15T04:24:34.423Z,41.3
2019-03-15T04:34:33.635Z,41.2
2019-03-15T04:44:32.843Z,32.6
2019-03-15T04:54:32.053Z,33
2019-03-15T05:04:31.264Z,37.2
2019-03-15T05:14:30.480Z,40.4
2019-03-15T05:24:29.688Z,41.4
2019-03-15T05:34:28.900Z,43.9
2019-03-15T05:44:28.112Z,33.2
2019-03-15T05:54:27.323Z,28.4
2019-03-15T06:04:26.535Z,29.3
2019-03-15T06:14:25.745Z,37.8
2019-03-15T06:24:24.959Z,32.3
2019-03-15T06:34:24.170Z,29.6
2019-03-15T06:44:23.382Z,29.2
2019-03-15T06:54:22.646Z,27.1
2019-03-15T07:04:21.809Z,25.4
2019-03-15T07:14:21.017Z,23.5
2019-03-15T07:24:25.323Z,25.3
2019-03-15T07:34:19.442Z,22
2019-03-15T07:44:18.652Z,22.1
2019-03-15T07:54:17.866Z,23.4
2019-03-15T08:04:17.692Z,22.4
2019-03-15T08:14:16.282Z,23.1
2019-03-15T08:24:15.494Z,21.4
2019-03-15T08:34:14.705Z,22.4
2019-03-15T08:44:13.917Z,22.6
2019-03-15T08:54:13.132Z,22.4
2019-03-15T09:04:12.343Z,23.1
2019-03-15T09:14:11.556Z,27.6
2019-03-15T09:24:10.774Z,24.3
2019-03-15T09:34:09.982Z,23.4
2019-03-15T09:44:09.194Z,25.3
2019-03-15T09:54:08.406Z,27.1
2019-03-15T10:04:07.619Z,26.1
2019-03-15T10:14:06.838Z,27
2019-03-15T10:24:06.042Z,26.4
2019-03-15T10:34:05.866Z,27.4
2019-03-15T10:44:04.491Z,28.6
2019-03-15T10:54:03.677Z,28.9
2019-03-15T11:04:02.891Z,28.6
2019-03-15T11:14:02.102Z,28.3
2019-03-15T11:24:01.314Z,29.1
2019-03-15T11:34:00.528Z,28.9
2019-03-15T11:43:59.741Z,26
2019-03-15T11:53:58.952Z,30
2019-03-15T12:03:58.164Z,27.5
2019-03-15T12:13:57.396Z,25.8
2019-03-15T12:23:56.588Z,25.2
2019-03-15T12:33:55.800Z,25.8
2019-03-15T12:43:55.011Z,24.6
2019-03-15T12:53:54.220Z,23.9
2019-03-15T13:03:53.435Z,25.4
2019-03-15T13:13:52.641Z,24.8
2019-03-15T13:23:51.851Z,24.3
2019-03-15T13:33:51.061Z,25.8
2019-03-15T13:43:50.326Z,27.5
2019-03-15T13:53:49.480Z,29.3
2019-03-15T14:03:48.690Z,28.3
2019-03-15T14:13:47.902Z,40.6
2019-03-15T14:23:47.108Z,40.3
2019-03-15T14:33:46.317Z,31.4
2019-03-15T14:43:45.632Z,25.9
2019-03-15T14:53:44.739Z,25.4
2019-03-15T15:03:43.944Z,26.1
2019-03-15T15:13:43.153Z,24.6
2019-03-15T15:23:42.363Z,27.2
2019-03-15T15:33:41.571Z,28.1
2019-03-15T15:43:40.778Z,27.1
2019-03-15T15:53:39.985Z,40.4
2019-03-15T16:03:39.194Z,39.3
2019-03-15T16:13:38.403Z,39.7
2019-03-15T16:23:37.613Z,39.4
2019-03-15T16:33:36.824Z,27.9
2019-03-15T16:43:36.033Z,25.6
2019-03-15T16:54:05.616Z,28.8
2019-03-15T17:04:04.821Z,29.4
2019-03-15T17:14:04.031Z,34.6
2019-03-15T17:24:03.249Z,37.6
2019-03-15T17:34:02.454Z,38.5
2019-03-15T17:44:01.673Z,38.6
2019-03-15T17:54:00.962Z,41.3
2019-03-15T18:04:00.322Z,36
2019-03-15T18:13:59.542Z,28.6
2019-03-15T18:23:58.834Z,24.3
2019-03-15T18:33:58.124Z,26.2
2019-03-15T18:43:57.374Z,26.3
2019-03-15T18:53:56.589Z,25.8
2019-03-15T19:03:55.897Z,27.9
2019-03-15T19:13:55.012Z,29.2
2019-03-15T19:23:54.217Z,28.4
2019-03-15T19:33:53.430Z,37.4
2019-03-15T19:43:52.650Z,24.9
2019-03-15T19:53:51.853Z,26.5
2019-03-15T20:03:51.070Z,23.4
2019-03-15T20:13:50.277Z,35.4
2019-03-15T20:23:49.491Z,36.7
2019-03-15T20:33:48.703Z,38.3
2019-03-15T20:43:47.917Z,27.4
2019-03-15T20:53:47.130Z,27.8
2019-03-15T21:03:55.730Z,32.7
2019-03-15T21:15:20.463Z,26
2019-03-15T21:25:19.673Z,24.4
2019-03-15T21:35:18.884Z,38.1
2019-03-15T21:45:18.097Z,38
2019-03-15T21:55:17.310Z,38.3
2019-03-15T22:05:16.536Z,36.6
2019-03-15T22:15:15.816Z,28.7
2019-03-15T22:25:15.105Z,26.7
2019-03-15T22:35:14.397Z,24.6
2019-03-15T22:45:13.685Z,24.7
2019-03-15T22:55:12.973Z,37.6
2019-03-15T23:05:12.222Z,37.8
2019-03-15T23:15:11.432Z,39.1
2019-03-15T23:25:10.645Z,33.3
2019-03-15T23:35:09.854Z,29.4
2019-03-15T23:45:09.061Z,26.1
2019-03-15T23:55:08.272Z,24.2
